Sea Cloud II — 9HUE6 — position and weather

sailwx.info

Track history (hours):
 
Tides and Currents Weather Stations Pressure Air Temp Water Temp Dewpoint Dewpoint Depression Visibility Wind Speed Wind Dir Waves Ship Positions

Sea Cloud II

Ship's website: http://www.seacloud.com/en/the-ships/sea-cloud-ii.html

Last reported at 2019-Jan-15 00:44 UTC. Time now 2019-Jan-23 23:08 UTC.
Position N 09°22' W 079°54'.
Warning: this ship's position is 8 days out of date.

Length 117 m; draft 6 m.

Type: Passenger vessel. MMSI: 248953000.

Date/timePositionNaut miles runAvg speedWind from/ knotsBaromVisibWave heightAir tempDewpointWater temp
2019-Jan-15 00:44N 09°22' W 079°54'0 0.0
2019-Jan-15 00:29N 09°22' W 079°54'0 0.0
2019-Jan-14 23:59N 09°22' W 079°54'0 0.0
2019-Jan-14 23:29N 09°22' W 079°54'0 0.0
2019-Jan-14 22:59N 09°22' W 079°54'0 0.0
2019-Jan-14 22:29N 09°22' W 079°54'0 0.0
2019-Jan-14 21:59N 09°22' W 079°54'0 0.0
2019-Jan-14 21:29N 09°22' W 079°54'0 0.0
2019-Jan-14 20:59N 09°22' W 079°54'0 0.0
2019-Jan-14 20:29N 09°22' W 079°54'0 0.0
2019-Jan-14 19:59N 09°22' W 079°54'0 0.0
2019-Jan-14 19:29N 09°22' W 079°54'0 0.0
2019-Jan-14 18:59N 09°22' W 079°54'0 0.0
2019-Jan-14 18:29N 09°22' W 079°54'0 0.0
2019-Jan-14 17:59N 09°22' W 079°54'0 0.0
2019-Jan-14 17:29N 09°22' W 079°54'0 0.0
2019-Jan-14 16:59N 09°22' W 079°54'0 0.0
2019-Jan-14 16:29N 09°22' W 079°54'0 0.0
2019-Jan-14 15:59N 09°22' W 079°54'0 0.0
2019-Jan-14 15:29N 09°22' W 079°54'0 0.0
2019-Jan-14 14:59N 09°22' W 079°54'0 0.0
2019-Jan-14 14:29N 09°22' W 079°54'0 0.0
2019-Jan-14 13:59N 09°22' W 079°54'0 0.0
2019-Jan-14 13:29N 09°22' W 079°54'0 0.0
2019-Jan-14 12:59N 09°22' W 079°54'0 0.0
2019-Jan-14 12:29N 09°22' W 079°54'0 0.0
2019-Jan-14 11:59N 09°22' W 079°54'1 1.5
2019-Jan-14 11:30N 09°22' W 079°54'2 4.8
2019-Jan-14 11:00N 09°25' W 079°54'2 4.0
2019-Jan-14 10:30N 09°27' W 079°53'2 4.9
2019-Jan-14 10:00N 09°29' W 079°53'4 6.6
2019-Jan-14 09:28N 09°33' W 079°52'3 5.4
2019-Jan-14 09:00N 09°35' W 079°51'4 6.7
2019-Jan-14 08:22N 09°39' W 079°50'2 4.1
2019-Jan-14 08:00N 09°40' W 079°49'2 4.1
2019-Jan-14 07:30N 09°42' W 079°48'10 0.3
2019-Jan-12 22:35N 09°32' W 079°50'310.5
2019-Jan-12 22:17N 09°29' W 079°52'310.5
2019-Jan-12 22:00N 09°27' W 079°54'5 9.9
2019-Jan-12 21:30N 09°23' W 079°55'4 7.8
2019-Jan-12 21:01N 09°19' W 079°55'2 4.2
2019-Jan-12 20:30N 09°17' W 079°55'0 0.8
2019-Jan-12 20:00N 09°16' W 079°55'1 1.2
2019-Jan-12 19:30N 09°16' W 079°55'2 4.4
2019-Jan-12 19:01N 09°13' W 079°55'4 7.4
2019-Jan-12 18:29N 09°11' W 079°52'4 7.2
2019-Jan-12 17:59N 09°10' W 079°49'  
Track history (hours):
 
Tides and Currents Weather Stations Pressure Air Temp Water Temp Dewpoint Dewpoint Depression Visibility Wind Speed Wind Dir Waves Ship Positions

Sea Cloud II

Ship's website: http://www.seacloud.com/en/the-ships/sea-cloud-ii.html

Last reported at 2019-Jan-15 00:44 UTC. Time now 2019-Jan-23 23:08 UTC.
Position N 09°22' W 079°54'.
Warning: this ship's position is 8 days out of date.

Length 117 m; draft 6 m.

Type: Passenger vessel. MMSI: 248953000.

Date/timePositionNaut miles runAvg speedWind from/ knotsBaromVisibWave heightAir tempDewpointWater temp
2019-Jan-15 00:44N 09°22' W 079°54'0 0.0
2019-Jan-15 00:29N 09°22' W 079°54'0 0.0
2019-Jan-14 23:59N 09°22' W 079°54'0 0.0
2019-Jan-14 23:29N 09°22' W 079°54'0 0.0
2019-Jan-14 22:59N 09°22' W 079°54'0 0.0
2019-Jan-14 22:29N 09°22' W 079°54'0 0.0
2019-Jan-14 21:59N 09°22' W 079°54'0 0.0
2019-Jan-14 21:29N 09°22' W 079°54'0 0.0
2019-Jan-14 20:59N 09°22' W 079°54'0 0.0
2019-Jan-14 20:29N 09°22' W 079°54'0 0.0
2019-Jan-14 19:59N 09°22' W 079°54'0 0.0
2019-Jan-14 19:29N 09°22' W 079°54'0 0.0
2019-Jan-14 18:59N 09°22' W 079°54'0 0.0
2019-Jan-14 18:29N 09°22' W 079°54'0 0.0
2019-Jan-14 17:59N 09°22' W 079°54'0 0.0
2019-Jan-14 17:29N 09°22' W 079°54'0 0.0
2019-Jan-14 16:59N 09°22' W 079°54'0 0.0
2019-Jan-14 16:29N 09°22' W 079°54'0 0.0
2019-Jan-14 15:59N 09°22' W 079°54'0 0.0
2019-Jan-14 15:29N 09°22' W 079°54'0 0.0
2019-Jan-14 14:59N 09°22' W 079°54'0 0.0
2019-Jan-14 14:29N 09°22' W 079°54'0 0.0
2019-Jan-14 13:59N 09°22' W 079°54'0 0.0
2019-Jan-14 13:29N 09°22' W 079°54'0 0.0
2019-Jan-14 12:59N 09°22' W 079°54'0 0.0
2019-Jan-14 12:29N 09°22' W 079°54'0 0.0
2019-Jan-14 11:59N 09°22' W 079°54'1 1.5
2019-Jan-14 11:30N 09°22' W 079°54'2 4.8
2019-Jan-14 11:00N 09°25' W 079°54'2 4.0
2019-Jan-14 10:30N 09°27' W 079°53'2 4.9
2019-Jan-14 10:00N 09°29' W 079°53'4 6.6
2019-Jan-14 09:28N 09°33' W 079°52'3 5.4
2019-Jan-14 09:00N 09°35' W 079°51'4 6.7
2019-Jan-14 08:22N 09°39' W 079°50'2 4.1
2019-Jan-14 08:00N 09°40' W 079°49'2 4.1
2019-Jan-14 07:30N 09°42' W 079°48'10 0.3
2019-Jan-12 22:35N 09°32' W 079°50'310.5
2019-Jan-12 22:17N 09°29' W 079°52'310.5
2019-Jan-12 22:00N 09°27' W 079°54'5 9.9
2019-Jan-12 21:30N 09°23' W 079°55'4 7.8
2019-Jan-12 21:01N 09°19' W 079°55'2 4.2
2019-Jan-12 20:30N 09°17' W 079°55'0 0.8
2019-Jan-12 20:00N 09°16' W 079°55'1 1.2
2019-Jan-12 19:30N 09°16' W 079°55'2 4.4
2019-Jan-12 19:01N 09°13' W 079°55'4 7.4
2019-Jan-12 18:29N 09°11' W 079°52'4 7.2
2019-Jan-12 17:59N 09°10' W 079°49'  

Dump ship's entire track history